Date,TemperatureHighF,TemperatureAvgF,TemperatureLowF,DewpointHighF,DewpointAvgF,DewpointLowF,HumidityHigh,HumidityAvg,HumidityLow,PressureMaxIn,PressureMinIn,WindSpeedMaxMPH,WindSpeedAvgMPH,GustSpeedMaxMPH,PrecipitationSumIn
2013-1-1,22,15,8,16,10,4,88,80,66,30.34,30.18,7,3,11,0.02
2013-1-2,32,20,5,22,14,2,90,78,66,30.28,30.15,11,7,18,0.04
2013-1-3,37,27,14,28,22,10,90,81,68,30.42,30.22,8,4,11,0.05
2013-1-4,36,24,12,26,19,9,89,80,65,30.40,30.28,16,7,22,0.01
2013-1-5,38,33,25,33,29,20,89,83,76,30.28,30.06,14,9,25,0.01
2013-1-6,35,28,23,28,22,18,85,76,58,30.36,30.08,8,4,16,0.00
2013-1-7,43,33,22,30,25,18,92,72,57,30.35,30.09,13,8,19,0.00
2013-1-8,47,39,30,35,30,25,80,70,59,30.13,30.01,11,7,15,0.00
2013-1-9,52,42,34,37,33,30,87,73,51,30.46,30.13,10,3,16,0.00
2013-1-10,45,40,35,44,36,29,97,87,66,30.43,29.73,9,4,14,0.51
2013-1-11,59,53,43,52,48,42,97,85,70,29.78,29.63,17,10,25,0.01
2013-1-12,56,37,23,48,30,20,93,75,46,30.04,29.67,14,7,25,0.00
2013-1-13,24,19,12,20,12,8,89,76,63,30.38,29.98,10,4,15,0.00
2013-1-14,29,16,8,12,8,5,89,70,44,30.54,30.37,5,1,8,0.05
2013-1-15,28,18,7,17,10,2,89,72,49,30.46,30.18,4,1,6,0.04
2013-1-16,40,28,14,28,19,8,79,68,47,30.19,29.98,16,8,22,0.00
2013-1-17,37,32,25,30,24,19,89,73,55,30.47,30.14,10,4,14,0.00
2013-1-18,52,40,26,35,28,20,81,64,46,30.46,30.02,18,11,22,0.00
2013-1-19,56,47,38,41,34,26,74,61,49,30.16,29.89,20,11,27,0.00
2013-1-20,38,23,18,26,12,7,79,64,47,30.38,30.16,12,6,23,0.00
2013-1-21,18,13,11,10,1,-5,78,58,44,30.44,30.35,14,5,23,0.00
2013-1-22,17,13,8,9,3,-2,80,65,59,30.53,30.38,7,2,10,0.00
2013-1-23,40,23,10,24,14,5,88,70,48,30.46,30.18,12,5,19,0.00
2013-1-24,24,17,10,12,6,2,74,61,49,30.64,30.26,11,7,19,0.00
2013-1-25,44,32,24,24,18,12,73,58,41,30.27,30.11,12,4,19,0.00
2013-1-26,38,27,15,23,15,8,77,62,40,30.42,30.26,8,4,12,0.00
2013-1-27,51,37,28,49,33,19,95,86,64,30.26,29.83,13,6,20,0.28
2013-1-28,67,58,51,61,55,49,95,89,80,29.90,29.71,13,6,20,0.00
2013-1-29,64,55,37,59,52,35,97,91,73,29.71,29.41,19,7,25,1.36
2013-1-30,37,30,24,36,26,15,96,85,67,29.91,29.31,12,7,21,0.11
2013-1-31,25,17,7,19,9,-2,77,69,60,30.46,29.90,14,7,22,0.00
2013-2-1,26,14,3,19,6,-3,85,69,58,30.51,30.20,13,6,16,0.00
2013-2-2,32,28,24,23,20,16,93,72,64,30.20,30.05,11,5,15,0.00
2013-2-3,34,28,23,27,20,16,95,72,49,30.24,29.94,14,6,21,0.07
2013-2-4,40,31,24,31,24,17,87,76,67,30.01,29.79,11,6,18,0.00
2013-2-5,49,34,23,36,28,20,91,81,59,30.13,29.90,13,5,19,0.00
2013-2-6,52,38,26,38,31,24,95,76,50,30.20,29.99,11,5,15,0.01
2013-2-7,45,39,33,41,36,30,99,89,66,30.12,29.87,14,5,20,0.55
2013-2-8,32,31,30,30,28,27,92,88,85,30.39,30.12,11,5,19,0.00
2013-2-9,41,34,30,34,30,26,93,85,74,30.35,29.94,11,6,15,0.14
2013-2-10,60,46,36,52,39,26,96,79,45,29.95,29.40,25,13,35,0.34
2013-2-11,38,36,34,27,25,23,68,64,60,29.96,29.73,22,13,33,0.00
2013-2-18,54,39,26,48,33,18,94,80,68,29.92,29.46,16,10,31,0.86
2013-2-19,28,22,17,18,12,9,76,66,50,30.35,29.92,14,6,28,0.00
2013-2-20,21,17,9,15,10,3,81,72,65,30.48,30.33,9,5,12,0.00
2013-2-21,28,22,18,27,20,14,95,90,82,30.36,29.82,17,9,24,0.00
2013-2-22,31,27,19,30,24,14,96,87,76,30.06,29.77,14,7,23,0.00
2013-2-23,30,20,10,20,15,7,91,80,67,30.06,30.00,10,4,13,0.05
2013-2-24,39,26,13,27,20,11,91,77,59,30.13,30.03,8,3,10,0.00
2013-2-25,39,31,21,34,26,17,92,82,71,30.10,29.77,18,8,22,0.02
2013-2-26,36,32,31,32,31,30,97,96,81,29.76,29.47,21,12,28,0.01
2013-2-27,33,31,29,31,29,27,96,94,90,29.92,29.70,8,4,16,0.19
2013-2-28,34,30,28,29,27,26,94,89,82,30.15,29.92,10,5,13,0.03
2013-3-1,30,27,23,28,24,18,94,86,73,30.28,30.11,11,6,13,0.11
2013-3-2,32,25,19,22,19,15,90,77,59,30.33,30.24,9,4,13,0.00
2013-3-3,32,25,14,26,20,12,92,79,67,30.24,30.00,7,3,9,0.00
2013-3-4,40,35,31,32,29,26,87,79,63,30.00,29.76,12,7,15,0.02
2013-3-5,33,32,29,31,27,22,95,84,69,30.22,29.88,16,7,23,0.18
2013-3-6,32,28,20,24,21,16,90,77,67,30.41,30.22,13,6,23,0.02
2013-3-7,37,26,15,27,22,12,100,83,65,30.43,30.32,9,3,11,0.01
2013-3-8,44,36,26,34,30,23,93,79,64,30.38,30.13,11,4,14,0.00
2013-3-9,49,42,37,41,37,33,95,84,68,30.14,29.71,12,5,19,1.29
2013-3-10,48,43,36,47,42,35,98,97,93,29.75,29.52,15,5,19,0.40
2013-3-11,36,32,30,35,29,25,96,87,75,29.97,29.68,12,8,19,0.00
2013-3-12,40,32,24,31,26,21,90,79,60,30.25,29.97,13,6,23,0.00
2013-3-13,39,30,23,23,20,17,82,67,46,30.46,30.25,9,4,16,0.00
2013-3-14,58,41,28,44,32,21,83,70,52,30.39,30.06,12,5,18,0.00
2013-3-15,71,50,32,55,42,30,95,76,51,30.07,29.63,12,2,16,0.00
2013-3-16,50,41,37,45,37,32,91,86,75,30.02,29.62,12,7,19,0.00
2013-3-20,32,28,23,15,12,10,68,52,41,30.30,30.15,11,6,20,0.00
2013-3-21,35,26,17,23,16,11,80,66,46,30.16,30.00,7,2,11,0.00
2013-3-22,38,32,25,28,23,19,82,71,53,30.07,29.99,8,3,13,0.00
2013-3-23,48,39,33,34,30,26,92,70,49,30.07,29.90,13,6,22,0.02
2013-3-24,34,30,29,32,29,28,96,96,93,29.95,29.74,14,9,20,0.10
2013-3-25,33,30,28,29,28,26,96,91,81,30.23,29.90,11,5,18,0.10
2013-3-26,39,32,27,28,25,23,86,75,56,30.36,30.23,7,3,12,0.03
2013-3-27,45,34,22,32,27,20,93,74,52,30.40,30.30,7,2,18,0.00
2013-3-28,53,42,34,40,33,28,82,72,59,30.34,30.22,10,5,16,0.00
2013-3-29,61,46,33,46,38,30,90,74,48,30.26,30.17,8,3,12,0.00
2013-3-30,52,47,39,47,43,36,95,86,73,30.18,29.89,15,6,28,0.00
2013-3-31,63,52,42,49,42,31,96,71,43,29.99,29.84,11,5,18,0.00
2013-4-1,44,37,30,33,23,17,78,59,37,30.28,29.98,13,6,19,0.00
2013-4-2,48,36,24,26,22,14,84,57,32,30.38,30.27,8,3,12,0.00
2013-4-3,49,39,28,32,24,20,79,58,36,30.43,30.25,10,4,14,0.00
2013-4-4,61,47,34,33,28,24,77,50,29,30.26,30.03,6,1,9,0.00
2013-4-5,64,51,38,41,35,29,85,56,31,30.19,29.94,9,3,12,0.00
2013-4-6,72,61,53,52,43,38,61,52,40,29.95,29.61,23,12,35,0.00
2013-4-7,76,62,46,53,45,41,84,58,33,29.89,29.70,10,3,15,0.03
2013-4-8,72,63,55,63,58,50,95,84,72,29.77,29.58,20,5,31,0.83
2013-4-9,75,68,63,65,61,58,88,77,68,29.78,29.69,17,8,25,0.00
2013-4-10,69,52,46,63,50,45,97,92,80,29.88,29.59,18,7,28,1.48
2013-4-11,47,41,38,46,38,31,97,87,76,29.71,29.63,15,8,21,0.02
2013-4-12,42,39,36,36,33,30,83,79,73,30.00,29.68,13,8,20,0.00
2013-4-13,54,44,33,42,36,29,92,72,54,30.06,29.85,10,5,14,0.00
2013-4-14,78,62,48,56,48,40,93,62,33,29.85,29.48,20,10,27,0.31
2013-4-15,58,53,44,57,46,36,94,79,61,29.99,29.67,12,4,19,0.12
2013-4-16,48,44,40,42,38,34,90,79,69,30.18,29.97,13,7,16,0.16
2013-4-17,60,50,45,58,47,42,97,92,79,30.15,29.60,21,9,30,2.80
2013-4-18,62,51,38,61,48,31,98,91,76,29.77,29.44,21,9,27,1.69
2013-4-19,47,41,35,31,29,26,80,64,46,30.08,29.74,17,8,24,0.01
2013-4-20,45,35,29,31,27,25,87,73,50,30.31,30.07,5,2,9,0.00
2013-4-22,69,64,57,48,44,40,70,50,37,30.13,29.91,13,5,18,0.00
2013-4-23,57,43,38,48,39,35,94,89,70,30.07,29.89,13,6,18,0.63
2013-4-24,52,42,35,36,32,29,93,69,44,30.20,30.05,13,6,19,0.01
2013-4-25,62,50,36,40,35,30,88,57,33,30.32,30.17,11,5,19,0.00
2013-4-26,60,54,49,49,44,37,82,69,60,30.29,30.19,17,9,24,0.00
2013-4-27,52,50,47,50,48,44,97,92,80,30.26,29.96,6,3,13,0.21
2013-4-28,65,55,50,55,51,49,100,87,64,29.96,29.83,7,3,11,0.00
2013-4-29,84,66,47,66,57,46,95,73,47,29.86,29.63,15,8,22,0.01
2013-4-30,85,74,64,62,57,51,82,58,34,29.85,29.66,16,10,23,0.00
2013-5-1,82,70,57,61,54,47,82,59,36,30.07,29.85,11,6,15,0.00
2013-5-2,56,44,36,48,40,35,97,84,72,30.24,30.07,11,8,20,0.27
2013-5-3,41,38,36,40,36,34,96,94,92,30.18,29.79,12,7,18,1.63
2013-5-4,47,43,38,46,41,37,97,93,86,30.03,29.79,7,2,10,0.02
2013-5-5,68,55,43,58,51,42,98,89,70,30.04,29.91,10,3,16,0.12
2013-5-6,73,63,52,57,54,51,96,75,50,30.02,29.95,11,4,15,0.00
2013-5-7,78,66,54,56,51,46,83,61,34,30.02,29.94,6,1,8,0.00
2013-5-8,79,66,51,60,54,48,92,68,42,30.00,29.92,13,2,13,0.00
2013-5-9,71,62,58,65,60,56,96,92,78,29.92,29.78,12,4,20,1.30
2013-5-10,59,56,51,58,53,49,95,90,81,30.00,29.82,9,4,14,0.01
2013-5-11,60,53,45,52,40,31,97,65,35,30.18,29.98,16,6,25,0.01
2013-5-12,60,50,40,38,31,25,83,50,29,30.25,30.13,9,3,13,0.00
2013-5-13,72,58,38,50,42,34,92,58,33,30.19,29.94,10,5,14,0.00
2013-5-14,89,74,58,64,57,49,81,57,38,29.94,29.70,15,9,22,0.00
2013-5-15,86,77,67,68,62,56,92,60,47,29.84,29.74,13,6,25,0.07
2013-5-16,84,71,62,68,65,58,96,81,52,29.89,29.78,13,4,19,0.06
2013-5-17,79,68,58,68,62,54,90,79,66,29.93,29.86,6,2,11,0.01
2013-5-18,82,72,61,69,65,60,97,81,60,29.95,29.80,7,2,11,0.00
2013-5-19,88,77,66,74,68,62,90,75,53,29.83,29.57,20,6,28,0.02
2013-5-20,83,69,62,68,62,59,93,81,49,29.79,29.57,18,9,26,0.66
2013-5-21,76,68,62,64,60,57,95,78,56,29.71,29.64,13,8,20,0.00
2013-5-22,68,63,60,58,55,52,87,76,65,29.85,29.63,12,5,18,0.00
2013-5-23,66,60,55,56,53,50,91,78,60,30.23,29.85,11,4,14,0.00
2013-5-24,69,58,47,51,47,41,95,68,39,30.40,30.23,8,2,20,0.00
2013-5-25,67,58,52,60,52,46,95,82,68,30.32,30.11,14,5,16,1.31
2013-5-26,75,63,52,67,59,49,96,86,75,30.15,29.93,9,4,13,0.12
2013-5-27,75,67,62,67,64,61,97,90,74,29.95,29.60,20,4,26,2.13
2013-5-28,76,71,60,71,67,58,97,87,77,29.90,29.68,22,8,25,1.82
2013-5-29,84,74,61,72,66,60,95,79,60,29.92,29.71,15,8,20,0.20
2013-5-30,79,70,62,70,65,60,94,85,63,29.79,29.65,19,9,27,0.60
2013-5-31,71,65,61,68,63,58,96,93,85,29.85,29.63,10,4,16,0.78
2013-6-1,73,66,61,66,61,56,97,84,55,29.87,29.66,14,7,21,0.01
2013-6-2,63,60,54,57,54,50,88,81,68,30.04,29.85,8,3,13,0.00
2013-6-3,70,60,46,57,51,45,95,75,57,30.11,29.97,5,2,11,0.00
2013-6-4,75,64,53,64,57,51,93,77,63,30.08,29.94,9,2,13,0.00
2013-6-5,75,67,57,65,61,55,95,82,68,30.01,29.86,7,2,10,0.01
2013-6-6,75,67,61,64,57,52,96,72,48,29.90,29.84,7,3,11,0.00
2013-6-7,71,63,55,59,56,52,92,77,58,29.94,29.89,8,2,11,0.00
2013-6-8,78,67,52,59,55,50,96,69,44,29.94,29.84,9,3,13,0.00
2013-6-9,74,66,62,64,61,56,96,82,67,29.87,29.72,11,6,16,0.10
2013-6-10,78,69,62,66,62,60,95,81,61,29.88,29.73,7,2,10,0.00
2013-6-11,89,76,61,74,68,59,96,78,54,29.90,29.75,13,4,15,0.00
2013-6-12,94,82,70,75,71,65,91,70,50,29.85,29.64,20,8,27,0.00
2013-6-13,83,74,67,65,61,55,83,64,41,29.98,29.75,10,4,20,0.00
2013-6-14,79,69,60,68,63,58,95,81,58,30.10,29.84,16,3,23,0.11
2013-6-15,89,74,66,76,68,63,96,83,61,30.05,29.85,31,6,37,1.71
2013-6-16,81,73,66,73,69,65,96,87,70,29.96,29.88,8,3,11,0.08
2013-6-17,83,75,67,73,69,66,97,84,61,29.95,29.87,7,2,11,0.00
2013-6-18,83,75,67,68,65,59,97,74,47,29.97,29.88,8,3,16,0.01
2013-6-19,84,73,62,68,63,59,92,73,45,30.06,29.97,5,1,8,0.00
2013-6-20,88,78,65,72,67,62,89,70,51,30.06,29.96,11,5,16,0.00
2013-6-21,92,83,74,76,72,68,82,71,57,30.01,29.87,12,8,19,0.00
2013-6-22,92,82,74,77,73,68,86,75,55,30.01,29.88,11,8,18,0.00
2013-6-23,88,74,69,76,68,66,95,84,63,29.99,29.80,15,6,23,0.87
2013-6-24,89,79,69,77,71,66,92,79,62,30.00,29.80,12,7,22,0.00
2013-6-25,88,82,75,78,74,70,86,77,67,29.88,29.74,13,6,19,0.00
2013-6-26,90,79,70,80,73,65,91,81,68,29.80,29.67,20,5,28,0.15
2013-6-27,89,79,70,74,70,66,88,74,54,29.90,29.79,8,2,10,0.00
2013-6-28,86,78,70,70,63,55,90,62,37,29.84,29.71,11,4,19,0.00
2013-6-29,78,70,63,65,62,59,93,76,59,29.79,29.67,11,5,23,0.33
2013-6-30,74,68,63,66,62,60,93,83,68,29.97,29.79,10,5,18,0.03
2013-7-1,78,70,60,62,58,54,92,67,46,30.04,29.97,12,6,16,0.01
2013-7-2,79,69,59,64,57,54,86,67,44,30.07,30.00,12,4,14,0.00
2013-7-3,83,70,58,64,60,57,95,73,43,30.05,29.96,7,1,8,0.00
2013-7-4,86,74,61,64,60,56,94,65,37,30.05,29.96,8,2,12,0.00
2013-7-5,86,76,64,66,64,61,91,68,46,30.03,29.94,9,4,15,0.00
2013-7-6,89,77,65,70,66,63,93,70,44,30.00,29.90,9,4,12,0.00
2013-7-7,90,80,69,72,68,65,87,68,48,29.97,29.91,10,6,14,0.00
2013-7-8,90,81,73,75,71,67,88,72,58,30.02,29.93,11,5,19,0.04
2013-7-9,93,84,77,78,74,70,84,71,54,29.99,29.83,12,6,16,0.02
2013-7-10,89,82,68,74,68,61,82,65,46,30.00,29.80,11,4,14,0.00
2013-7-11,83,73,62,64,61,58,89,69,46,30.07,30.00,7,2,12,0.00
2013-7-12,85,73,61,62,58,52,91,64,33,30.11,30.01,7,2,13,0.00
2013-7-13,83,72,58,65,60,55,89,70,49,30.09,30.00,6,1,10,0.00
2013-7-14,87,75,63,69,65,61,94,73,48,30.12,30.04,9,2,12,0.00
2013-7-15,90,79,69,76,72,67,94,80,56,30.19,30.11,10,1,13,0.03
2013-7-16,92,81,71,76,73,70,96,79,55,30.25,30.18,7,2,11,0.00
2013-7-17,94,83,72,76,73,70,95,74,49,30.29,30.15,7,1,9,0.00
2013-7-18,94,84,74,76,73,70,91,71,48,30.18,29.95,7,2,12,0.00
2013-7-19,95,86,76,74,71,67,84,64,42,29.96,29.80,13,6,15,0.00
2013-7-20,86,80,70,72,69,64,86,70,53,29.89,29.81,7,3,9,0.00
2013-7-21,78,72,66,72,69,65,96,90,80,29.89,29.80,8,2,12,0.49
2013-7-22,88,76,64,77,71,63,98,86,61,29.85,29.73,8,2,12,0.01
2013-7-23,83,74,66,70,66,61,96,77,54,29.92,29.75,9,4,12,0.15
2013-7-24,77,69,61,63,60,57,94,75,53,30.03,29.92,7,2,11,0.00
2013-7-25,83,71,57,66,61,56,96,74,51,30.10,30.01,9,2,13,0.00
2013-7-26,80,72,64,74,65,56,92,81,54,30.03,29.89,10,4,13,0.07
2013-7-27,73,64,56,58,52,49,91,68,45,30.03,29.96,8,3,14,0.00
2013-7-28,78,65,51,55,51,48,93,65,37,30.05,29.98,7,3,12,0.00
2013-7-29,77,65,52,65,58,50,94,82,51,30.13,30.05,7,1,12,0.13
2013-7-30,79,71,65,73,68,63,96,90,79,30.07,29.96,8,3,14,0.49
2013-7-31,78,71,66,69,67,64,96,87,68,30.06,29.99,5,2,10,0.00
2013-8-1,86,74,64,70,65,60,96,76,42,30.06,29.93,5,1,8,0.00
2013-8-2,82,72,67,72,68,65,97,86,71,29.93,29.87,9,3,12,0.02
2013-8-3,82,73,66,68,64,60,97,75,49,30.12,29.93,7,2,10,0.01
2013-8-4,81,70,59,65,62,57,95,76,53,30.17,30.04,7,1,9,0.00
2013-8-5,80,73,67,73,68,62,94,84,77,30.07,29.80,10,5,13,0.00
2013-8-6,85,76,67,76,72,66,98,88,69,29.87,29.78,7,2,11,0.01
2013-8-7,84,76,70,78,72,66,97,90,78,29.93,29.75,8,2,12,0.49
2013-8-8,79,71,62,71,66,61,96,86,69,29.98,29.91,8,2,10,0.01
2013-8-9,80,73,67,71,67,64,96,83,59,30.07,29.95,5,0,8,0.00
2013-8-10,81,72,64,67,62,56,91,71,46,30.16,30.07,9,3,12,0.00
2013-8-11,84,72,59,68,63,57,94,75,52,30.13,30.00,7,2,11,0.00
2013-8-12,82,72,65,73,66,62,91,82,67,30.03,29.92,7,1,11,0.00
2013-8-13,79,68,60,63,60,55,92,76,52,30.14,29.96,9,3,14,0.00
2013-8-14,75,64,52,57,53,47,94,70,39,30.22,30.11,6,1,10,0.00
2013-8-15,74,65,57,59,56,53,93,74,51,30.16,30.07,4,1,9,0.00
2013-8-16,78,67,57,60,57,55,92,73,48,30.16,30.10,7,2,11,0.00
2013-8-17,81,67,55,62,57,53,93,72,46,30.19,30.10,6,1,11,0.00
2013-8-18,83,70,57,67,60,54,93,75,51,30.17,30.06,6,1,8,0.00
2013-8-19,84,73,62,68,64,60,94,76,52,30.10,29.99,8,2,14,0.00
2013-8-20,87,75,63,70,65,61,96,74,47,30.07,29.98,9,3,14,0.00
2013-8-21,89,78,67,70,67,64,91,72,51,30.07,29.97,10,4,14,0.00
2013-8-22,88,78,69,75,71,66,94,79,56,30.07,29.98,7,2,9,0.00
2013-8-23,90,78,67,74,70,66,97,78,54,30.08,30.00,6,1,10,0.00
2013-8-24,90,78,68,75,70,66,95,77,53,30.16,30.06,7,2,11,0.00
2013-8-25,91,78,67,72,67,63,92,71,41,30.22,30.10,9,4,14,0.00
2013-8-26,94,80,67,75,70,64,93,72,46,30.14,29.99,9,4,16,0.00
2013-8-27,95,82,72,72,68,62,92,65,35,30.02,29.91,13,6,20,0.00
2013-8-28,97,84,71,71,67,65,83,61,36,29.99,29.92,9,5,14,0.00
2013-8-29,96,84,72,74,70,66,85,65,41,30.01,29.90,6,1,11,0.00
2013-8-30,101,86,73,76,71,66,92,63,34,29.91,29.75,10,4,16,0.00
2013-8-31,97,85,74,77,72,66,85,66,39,29.77,29.69,10,4,15,0.00
2013-9-1,91,78,69,74,67,59,97,72,43,29.86,29.74,7,2,10,0.00
2013-9-2,83,71,61,63,58,53,91,65,39,29.98,29.86,7,2,11,0.00
2013-9-3,84,68,54,59,54,49,94,65,31,30.09,29.98,4,1,10,0.00
2013-9-4,91,70,53,62,56,50,93,65,30,30.14,30.04,5,1,9,0.00
2013-9-5,91,74,59,65,60,56,93,65,37,30.16,30.09,5,1,10,0.00
2013-9-6,90,75,62,67,61,56,91,66,33,30.13,29.97,8,2,15,0.00
2013-9-7,95,79,63,69,65,58,88,64,40,29.99,29.84,9,4,14,0.00
2013-9-8,94,82,74,74,71,68,86,70,48,29.90,29.80,12,5,19,0.00
2013-9-9,99,84,73,72,67,58,92,61,34,29.90,29.81,13,6,21,0.00
2013-9-10,96,83,71,70,65,62,79,57,35,30.02,29.90,12,5,20,0.00
2013-9-11,96,83,72,70,65,61,84,57,33,30.07,29.96,12,4,19,0.00
2013-9-12,83,73,62,70,61,46,95,70,29,30.10,29.99,9,3,15,0.13
2013-9-13,75,62,51,56,48,38,87,63,28,30.17,30.08,9,3,15,0.00
2013-9-14,77,61,44,51,46,41,92,62,33,30.17,29.99,7,2,11,0.00
2013-9-15,81,66,57,65,56,46,92,73,47,30.15,29.93,11,6,18,0.05
2013-9-16,70,61,55,58,55,51,91,81,60,30.30,30.14,11,4,13,0.00
2013-9-17,67,61,55,64,58,51,95,89,82,30.24,30.03,7,2,11,0.01
2013-9-18,90,75,60,72,66,59,97,77,49,30.04,29.84,14,7,19,0.01
2013-9-19,92,81,70,71,69,66,91,69,45,29.88,29.74,14,8,20,0.70
2013-9-20,72,66,57,67,59,50,97,79,50,29.93,29.83,7,3,14,0.03
2013-9-21,70,59,49,52,49,46,91,72,44,30.00,29.90,6,2,0,0.00
2013-9-22,68,52,45,54,48,44,97,88,54,30.02,29.94,3,0,0,0.00
2013-9-23,49,49,49,47,47,47,93,93,93,29.95,29.95,0,0,0,0.00
2013-9-27,71,69,67,62,60,59,76,72,70,29.95,29.93,3,2,6,0.00
2013-9-28,76,67,56,70,62,54,95,86,69,30.04,29.87,14,6,21,0.38
2013-9-29,72,59,47,57,50,46,98,76,44,30.08,29.96,6,1,11,0.01
2013-9-30,77,62,46,64,55,44,94,80,54,29.96,29.84,10,4,14,0.00
2013-10-1,84,71,61,70,63,58,96,80,47,29.96,29.85,10,5,14,0.01
2013-10-2,86,71,60,70,65,58,97,83,52,30.01,29.88,8,1,14,0.18
2013-10-3,84,71,66,72,67,63,96,88,65,29.89,29.72,15,4,19,0.24
2013-10-4,88,77,69,73,69,65,95,78,48,29.89,29.80,12,7,18,0.00
2013-10-5,76,62,47,70,59,44,93,89,81,29.90,29.81,9,5,12,0.10
2013-10-6,52,47,41,48,44,39,94,87,70,29.90,29.81,12,6,19,0.04
2013-10-7,71,58,49,50,47,44,91,71,39,30.10,29.90,8,3,12,0.00
2013-10-8,77,61,48,54,48,45,94,67,36,30.15,30.06,10,4,15,0.00
2013-10-9,76,59,46,52,48,44,96,69,33,30.16,30.05,6,1,11,0.00
2013-10-10,79,62,47,60,52,45,96,73,41,30.11,29.95,9,2,13,0.00
2013-10-11,80,67,53,62,58,51,96,74,47,29.96,29.81,13,6,19,0.00
2013-10-12,72,64,50,61,50,39,92,63,31,30.21,29.85,9,4,19,0.01
2013-10-13,68,55,44,42,37,31,78,54,26,30.41,30.21,6,2,11,0.00
2013-10-14,69,55,38,52,42,34,89,65,39,30.35,29.99,9,3,16,0.02
2013-10-15,66,59,47,61,52,41,98,79,51,29.99,29.83,12,6,16,0.19
2013-10-16,54,50,46,45,42,40,92,74,65,30.03,29.96,8,4,13,0.05
2013-10-17,64,53,45,49,44,40,96,76,43,29.99,29.85,12,5,18,0.02
2013-10-18,53,45,40,44,39,35,94,80,53,30.06,29.90,7,4,13,0.05
2013-10-19,57,46,36,42,38,34,95,76,46,30.02,29.88,14,7,22,0.01
2013-10-20,72,56,42,46,42,38,89,62,33,29.91,29.75,16,8,23,0.00
2013-10-21,58,48,39,45,36,31,83,65,47,30.05,29.86,9,3,13,0.00
2013-10-22,56,44,35,46,39,32,92,82,67,30.04,29.80,11,5,20,0.01
2013-10-23,47,39,33,36,32,26,94,79,46,30.14,30.04,8,3,13,0.00
2013-10-24,45,38,31,37,28,23,94,69,44,30.42,30.14,9,4,19,0.01
2013-10-25,56,42,28,32,27,24,89,61,33,30.49,30.15,11,5,19,0.00
2013-10-26,58,48,37,40,31,24,73,54,31,30.15,30.01,12,6,16,0.00
2013-10-27,60,43,27,34,30,24,91,62,33,30.14,29.98,9,3,16,0.00
2013-10-28,70,50,32,39,34,28,88,59,25,30.22,30.03,5,1,8,0.00
2013-10-29,57,50,42,54,46,36,97,85,66,30.21,30.02,8,2,12,0.08
2013-10-30,67,61,54,66,60,54,98,97,94,30.02,29.72,9,3,15,0.66
2013-10-31,64,54,45,62,53,44,97,95,89,29.72,29.41,11,6,18,0.85
2013-11-1,57,48,43,44,42,40,96,80,56,29.85,29.54,11,5,18,0.01
2013-11-2,54,46,36,41,38,32,89,74,47,30.18,29.84,9,4,14,0.00
2013-11-3,58,45,30,40,34,28,96,69,41,30.26,30.06,13,4,20,0.00
2013-11-4,59,53,48,48,44,38,78,71,65,30.14,30.03,12,6,18,0.00
2013-11-5,58,55,52,56,53,48,96,91,75,30.18,29.88,13,7,20,0.20
2013-11-6,58,45,33,57,41,31,96,88,72,30.29,29.82,12,5,23,0.36
2013-11-7,54,40,30,39,32,27,95,73,44,30.35,30.28,10,3,14,0.00
2013-11-8,57,44,26,39,32,24,94,67,44,30.34,29.96,13,7,22,0.00
2013-11-9,67,54,46,42,38,32,77,56,29,30.27,29.97,12,6,23,0.00
2013-11-10,54,43,35,36,32,30,86,66,43,30.43,30.23,7,2,9,0.00
2013-11-11,57,43,26,47,34,20,87,71,55,30.60,30.14,13,7,23,0.00
2013-11-12,34,25,18,20,15,12,89,67,41,30.84,30.60,8,4,18,0.00
2013-11-13,46,32,17,21,16,12,84,55,28,30.72,30.23,14,7,19,0.00
2013-11-14,55,43,35,28,24,20,63,47,31,30.23,29.98,17,10,23,0.00
2013-11-15,58,48,41,44,35,24,87,62,48,30.00,29.82,12,7,18,0.00
2013-11-16,64,58,48,58,53,44,89,85,78,29.82,29.49,19,12,29,0.25
2013-11-17,72,59,44,63,50,40,90,75,48,29.96,29.28,25,10,39,0.01
2013-11-18,53,44,36,40,34,28,90,70,43,30.30,29.96,9,4,15,0.00
2013-11-19,53,39,28,33,29,24,88,69,44,30.34,30.16,9,3,15,0.00
2013-11-20,44,40,37,40,34,29,94,81,63,30.16,29.97,11,6,19,0.48
2013-11-21,49,45,36,46,42,34,95,88,79,30.29,30.03,10,4,15,0.15
2013-11-22,36,32,24,34,28,20,94,87,81,30.59,30.29,12,7,20,0.09
2013-11-23,24,21,13,20,13,8,89,73,55,30.80,30.59,14,7,21,0.00
2013-11-24,29,20,9,16,11,6,89,70,46,30.80,30.41,9,4,13,0.00
2013-11-25,36,32,27,23,19,14,77,59,47,30.41,30.16,13,7,19,0.00
2013-11-26,35,27,20,27,19,11,90,71,51,30.33,30.12,13,7,20,0.00
2013-11-27,29,21,14,16,11,8,80,64,44,30.42,30.22,11,4,13,0.00
2013-11-28,41,30,24,24,19,15,76,64,49,30.54,30.17,11,5,21,0.00
2013-11-29,44,30,18,28,22,14,89,72,49,30.59,30.33,9,3,12,0.00
2013-11-30,54,41,32,38,33,26,92,73,54,30.33,30.07,13,5,16,0.00
2013-12-1,52,39,29,37,33,27,95,78,54,30.14,29.92,4,1,5,0.00
2013-12-2,54,41,33,43,36,29,95,82,63,29.92,29.64,9,2,12,0.00
2013-12-3,54,45,35,50,43,33,100,92,84,29.65,29.55,12,4,15,0.00
2013-12-4,60,46,28,53,43,22,96,88,73,29.91,29.47,15,7,21,0.00
2013-12-5,28,22,19,22,13,10,81,68,60,30.37,29.90,10,6,20,0.00
2013-12-6,20,16,11,10,5,2,74,63,50,30.67,30.36,9,7,14,0.00
2013-12-7,21,13,6,8,4,1,82,68,43,30.79,30.52,8,4,12,0.00
2013-12-8,24,21,16,22,16,7,92,82,66,30.53,30.04,9,5,13,0.00
2013-12-9,23,16,9,19,10,3,88,78,67,30.36,30.10,10,4,15,0.00
2013-12-10,33,20,6,16,10,1,81,64,44,30.31,30.18,17,6,23,0.00
2013-12-11,27,18,4,21,8,-2,79,66,40,30.68,30.26,13,5,18,0.00
2013-12-12,40,23,3,20,11,-2,80,63,43,30.64,30.23,15,6,20,0.00
2013-12-13,35,30,22,32,26,17,96,84,60,30.23,29.94,9,4,14,0.22
2013-12-14,32,27,18,31,25,15,97,93,87,30.19,29.88,0,0,0,0.02
2013-12-15,28,21,14,23,19,11,93,90,82,30.19,30.05,7,1,8,0.10
2013-12-16,26,22,16,24,20,14,100,93,89,30.19,30.02,11,4,12,0.00
2013-12-17,40,30,19,33,23,16,95,77,52,30.27,30.16,8,4,12,0.33
2013-12-18,49,36,20,35,26,14,79,67,56,30.25,29.84,16,9,23,0.15
2013-12-19,53,47,40,48,41,35,89,82,71,29.86,29.69,10,6,14,0.00
2013-12-20,51,36,29,48,34,28,96,94,87,29.89,29.67,7,4,12,0.09
2013-12-21,30,28,27,29,27,25,95,94,92,29.89,29.64,11,5,14,0.01
2013-12-22,31,26,18,30,24,14,96,90,82,30.33,29.66,7,3,10,0.00
2013-12-23,18,10,3,14,4,-4,86,77,65,30.64,30.33,7,3,12,0.00
2013-12-24,23,11,-2,17,5,-6,83,76,67,30.64,30.32,9,4,13,0.00
2013-12-25,33,29,23,30,26,17,94,87,78,30.34,30.22,12,6,19,0.00
2013-12-26,43,33,21,34,27,18,92,81,68,30.32,30.18,14,7,20,0.21
2013-12-27,50,38,28,38,32,26,93,79,58,30.33,30.17,12,7,20,0.03
2013-12-28,54,43,35,37,33,30,85,68,48,30.18,29.85,15,8,22,0.00
2013-12-29,40,22,10,32,15,-2,89,74,56,30.34,29.85,14,8,23,0.00
2013-12-30,26,15,4,16,4,-6,69,61,47,30.39,30.19,10,4,13,0.00
2013-12-31,40,26,14,27,19,10,92,76,57,30.40,30.11,11,4,13,0.00
2014-1-1,22,18,15,20,15,12,92,87,81,30.23,30.12,11,7,15,0.00
2014-1-2,15,10,-1,12,5,-5,89,81,69,30.53,30.23,10,5,16,0.00